sensor_id;sensor_type;location;lat;lon;timestamp;temperature;humidity
13682;DHT22;6913;49.892;7.936;2022-08-20T00:00:44;23.30;99.90
13682;DHT22;6913;49.892;7.936;2022-08-20T00:03:14;23.20;99.90
13682;DHT22;6913;49.892;7.936;2022-08-20T00:05:47;23.20;99.90
13682;DHT22;6913;49.892;7.936;2022-08-20T00:08:15;23.00;99.90
13682;DHT22;6913;49.892;7.936;2022-08-20T00:10:44;23.10;99.90
13682;DHT22;6913;49.892;7.936;2022-08-20T00:13:15;23.10;99.90
13682;DHT22;6913;49.892;7.936;2022-08-20T00:15:42;23.20;99.90
13682;DHT22;6913;49.892;7.936;2022-08-20T00:18:10;23.30;99.90
13682;DHT22;6913;49.892;7.936;2022-08-20T00:20:40;23.20;99.90
13682;DHT22;6913;49.892;7.936;2022-08-20T00:23:07;23.20;99.90
13682;DHT22;6913;49.892;7.936;2022-08-20T00:25:36;23.20;99.90
13682;DHT22;6913;49.892;7.936;2022-08-20T00:28:04;23.20;99.90
13682;DHT22;6913;49.892;7.936;2022-08-20T00:30:32;23.20;99.90
13682;DHT22;6913;49.892;7.936;2022-08-20T00:33:03;23.20;99.90
13682;DHT22;6913;49.892;7.936;2022-08-20T00:35:33;23.00;99.90
13682;DHT22;6913;49.892;7.936;2022-08-20T00:38:00;23.00;99.90
13682;DHT22;6913;49.892;7.936;2022-08-20T00:40:32;23.00;99.90
13682;DHT22;6913;49.892;7.936;2022-08-20T00:43:03;23.10;99.90
13682;DHT22;6913;49.892;7.936;2022-08-20T00:45:33;23.10;99.90
13682;DHT22;6913;49.892;7.936;2022-08-20T00:48:01;23.10;99.90
13682;DHT22;6913;49.892;7.936;2022-08-20T00:50:31;23.10;99.90
13682;DHT22;6913;49.892;7.936;2022-08-20T00:52:59;23.00;99.90
13682;DHT22;6913;49.892;7.936;2022-08-20T00:55:28;23.00;99.90
13682;DHT22;6913;49.892;7.936;2022-08-20T00:57:59;23.00;99.90
13682;DHT22;6913;49.892;7.936;2022-08-20T01:00:33;23.00;99.90
13682;DHT22;6913;49.892;7.936;2022-08-20T01:03:04;22.90;99.90
13682;DHT22;6913;49.892;7.936;2022-08-20T01:05:34;22.80;99.90
13682;DHT22;6913;49.892;7.936;2022-08-20T01:08:02;22.80;99.90
13682;DHT22;6913;49.892;7.936;2022-08-20T01:10:34;22.80;99.90
13682;DHT22;6913;49.892;7.936;2022-08-20T01:13:06;22.80;99.90
13682;DHT22;6913;49.892;7.936;2022-08-20T01:15:37;22.80;99.90
13682;DHT22;6913;49.892;7.936;2022-08-20T01:18:06;22.80;99.90
13682;DHT22;6913;49.892;7.936;2022-08-20T01:20:38;22.80;99.90
13682;DHT22;6913;49.892;7.936;2022-08-20T01:23:10;22.80;99.90
13682;DHT22;6913;49.892;7.936;2022-08-20T01:26:00;23.10;99.90
13682;DHT22;6913;49.892;7.936;2022-08-20T01:28:34;22.90;99.90
13682;DHT22;6913;49.892;7.936;2022-08-20T01:31:03;22.90;99.90
13682;DHT22;6913;49.892;7.936;2022-08-20T01:33:30;22.80;99.90
13682;DHT22;6913;49.892;7.936;2022-08-20T01:35:57;22.80;99.90
13682;DHT22;6913;49.892;7.936;2022-08-20T01:38:25;22.70;99.90
13682;DHT22;6913;49.892;7.936;2022-08-20T01:41:34;22.70;99.90
13682;DHT22;6913;49.892;7.936;2022-08-20T01:44:04;22.70;99.90
13682;DHT22;6913;49.892;7.936;2022-08-20T01:46:35;22.70;99.90
13682;DHT22;6913;49.892;7.936;2022-08-20T01:49:08;22.70;99.90
13682;DHT22;6913;49.892;7.936;2022-08-20T01:51:35;22.70;99.90
13682;DHT22;6913;49.892;7.936;2022-08-20T01:54:03;22.70;99.90
13682;DHT22;6913;49.892;7.936;2022-08-20T01:56:31;22.70;99.90
13682;DHT22;6913;49.892;7.936;2022-08-20T01:59:02;22.60;99.90
13682;DHT22;6913;49.892;7.936;2022-08-20T02:01:35;22.60;99.90
13682;DHT22;6913;49.892;7.936;2022-08-20T02:04:05;22.60;99.90
13682;DHT22;6913;49.892;7.936;2022-08-20T02:06:35;22.50;99.90
13682;DHT22;6913;49.892;7.936;2022-08-20T02:09:04;22.40;99.90
13682;DHT22;6913;49.892;7.936;2022-08-20T02:11:32;22.40;99.90
13682;DHT22;6913;49.892;7.936;2022-08-20T02:14:00;22.20;99.90
13682;DHT22;6913;49.892;7.936;2022-08-20T02:16:31;22.20;99.90
13682;DHT22;6913;49.892;7.936;2022-08-20T02:19:02;22.20;99.90
13682;DHT22;6913;49.892;7.936;2022-08-20T02:21:35;22.20;99.90
13682;DHT22;6913;49.892;7.936;2022-08-20T02:24:04;22.30;99.90
13682;DHT22;6913;49.892;7.936;2022-08-20T02:26:31;22.10;99.90
13682;DHT22;6913;49.892;7.936;2022-08-20T02:28:59;22.10;99.90
13682;DHT22;6913;49.892;7.936;2022-08-20T02:31:27;22.00;99.90
13682;DHT22;6913;49.892;7.936;2022-08-20T02:33:54;22.00;99.90
13682;DHT22;6913;49.892;7.936;2022-08-20T02:36:21;21.90;99.90
13682;DHT22;6913;49.892;7.936;2022-08-20T02:38:48;22.00;99.90
13682;DHT22;6913;49.892;7.936;2022-08-20T02:41:15;21.80;99.90
13682;DHT22;6913;49.892;7.936;2022-08-20T02:43:42;21.70;99.90
13682;DHT22;6913;49.892;7.936;2022-08-20T02:46:11;21.70;99.90
13682;DHT22;6913;49.892;7.936;2022-08-20T02:48:40;21.60;99.90
13682;DHT22;6913;49.892;7.936;2022-08-20T02:51:08;21.30;99.90
13682;DHT22;6913;49.892;7.936;2022-08-20T02:53:36;21.60;99.90
13682;DHT22;6913;49.892;7.936;2022-08-20T02:56:04;21.70;99.90
13682;DHT22;6913;49.892;7.936;2022-08-20T02:58:32;21.70;99.90
13682;DHT22;6913;49.892;7.936;2022-08-20T03:01:00;21.60;99.90
13682;DHT22;6913;49.892;7.936;2022-08-20T03:03:28;21.50;99.90
13682;DHT22;6913;49.892;7.936;2022-08-20T03:05:57;21.70;99.90
13682;DHT22;6913;49.892;7.936;2022-08-20T03:08:25;21.70;99.90
13682;DHT22;6913;49.892;7.936;2022-08-20T03:10:52;21.70;99.90
13682;DHT22;6913;49.892;7.936;2022-08-20T03:13:20;21.70;99.90
13682;DHT22;6913;49.892;7.936;2022-08-20T03:15:48;21.80;99.90
13682;DHT22;6913;49.892;7.936;2022-08-20T03:18:22;21.90;99.90
13682;DHT22;6913;49.892;7.936;2022-08-20T03:20:51;21.70;99.90
13682;DHT22;6913;49.892;7.936;2022-08-20T03:23:19;21.50;99.90
13682;DHT22;6913;49.892;7.936;2022-08-20T03:25:47;21.60;99.90
13682;DHT22;6913;49.892;7.936;2022-08-20T03:28:14;21.50;99.90
13682;DHT22;6913;49.892;7.936;2022-08-20T03:30:42;21.50;99.90
13682;DHT22;6913;49.892;7.936;2022-08-20T03:33:09;21.50;99.90
13682;DHT22;6913;49.892;7.936;2022-08-20T03:35:37;21.60;99.90
13682;DHT22;6913;49.892;7.936;2022-08-20T03:38:07;21.50;99.90
13682;DHT22;6913;49.892;7.936;2022-08-20T03:40:35;21.80;99.90
13682;DHT22;6913;49.892;7.936;2022-08-20T03:43:03;21.60;99.90
13682;DHT22;6913;49.892;7.936;2022-08-20T03:45:30;21.60;99.90
13682;DHT22;6913;49.892;7.936;2022-08-20T03:47:58;21.60;99.90
13682;DHT22;6913;49.892;7.936;2022-08-20T03:50:29;21.60;99.90
13682;DHT22;6913;49.892;7.936;2022-08-20T03:52:57;21.50;99.90
13682;DHT22;6913;49.892;7.936;2022-08-20T03:55:28;21.50;99.90
13682;DHT22;6913;49.892;7.936;2022-08-20T03:57:58;21.50;99.90
13682;DHT22;6913;49.892;7.936;2022-08-20T04:00:28;21.40;99.90
13682;DHT22;6913;49.892;7.936;2022-08-20T04:02:55;21.30;99.90
13682;DHT22;6913;49.892;7.936;2022-08-20T04:05:22;21.20;99.90
13682;DHT22;6913;49.892;7.936;2022-08-20T04:07:50;21.30;99.90
13682;DHT22;6913;49.892;7.936;2022-08-20T04:10:17;21.40;99.90
13682;DHT22;6913;49.892;7.936;2022-08-20T04:12:45;21.40;99.90
13682;DHT22;6913;49.892;7.936;2022-08-20T04:15:13;21.40;99.90
13682;DHT22;6913;49.892;7.936;2022-08-20T04:17:44;21.40;99.90
13682;DHT22;6913;49.892;7.936;2022-08-20T04:20:13;21.40;99.90
13682;DHT22;6913;49.892;7.936;2022-08-20T04:22:41;21.40;99.90
13682;DHT22;6913;49.892;7.936;2022-08-20T04:25:08;21.40;99.90
13682;DHT22;6913;49.892;7.936;2022-08-20T04:27:35;21.40;99.90
13682;DHT22;6913;49.892;7.936;2022-08-20T04:30:06;21.50;99.90
13682;DHT22;6913;49.892;7.936;2022-08-20T04:32:33;21.50;99.90
13682;DHT22;6913;49.892;7.936;2022-08-20T04:35:01;21.40;99.90
13682;DHT22;6913;49.892;7.936;2022-08-20T04:37:28;21.40;99.90
13682;DHT22;6913;49.892;7.936;2022-08-20T04:39:55;21.50;99.90
13682;DHT22;6913;49.892;7.936;2022-08-20T04:42:39;21.40;99.90
13682;DHT22;6913;49.892;7.936;2022-08-20T04:45:08;21.50;99.90
13682;DHT22;6913;49.892;7.936;2022-08-20T04:47:35;21.40;99.90
13682;DHT22;6913;49.892;7.936;2022-08-20T04:50:03;21.50;99.90
13682;DHT22;6913;49.892;7.936;2022-08-20T04:52:33;21.50;99.90
13682;DHT22;6913;49.892;7.936;2022-08-20T04:55:02;21.60;99.90
13682;DHT22;6913;49.892;7.936;2022-08-20T04:57:30;21.60;99.90
13682;DHT22;6913;49.892;7.936;2022-08-20T04:59:56;21.60;99.90
13682;DHT22;6913;49.892;7.936;2022-08-20T05:02:25;21.50;99.90
13682;DHT22;6913;49.892;7.936;2022-08-20T05:04:52;21.50;99.90
13682;DHT22;6913;49.892;7.936;2022-08-20T05:07:19;21.60;99.90
13682;DHT22;6913;49.892;7.936;2022-08-20T05:09:46;21.50;99.90
13682;DHT22;6913;49.892;7.936;2022-08-20T05:12:13;21.50;99.90
13682;DHT22;6913;49.892;7.936;2022-08-20T05:14:42;21.40;99.90
13682;DHT22;6913;49.892;7.936;2022-08-20T05:17:09;21.50;99.90
13682;DHT22;6913;49.892;7.936;2022-08-20T05:19:40;21.50;99.90
13682;DHT22;6913;49.892;7.936;2022-08-20T05:22:07;21.60;99.90
13682;DHT22;6913;49.892;7.936;2022-08-20T05:24:34;21.60;99.90
13682;DHT22;6913;49.892;7.936;2022-08-20T05:27:01;21.70;99.90
13682;DHT22;6913;49.892;7.936;2022-08-20T05:29:28;21.80;99.90
13682;DHT22;6913;49.892;7.936;2022-08-20T05:31:55;21.70;99.90
13682;DHT22;6913;49.892;7.936;2022-08-20T05:34:22;21.80;99.90
13682;DHT22;6913;49.892;7.936;2022-08-20T05:36:51;21.80;99.90
13682;DHT22;6913;49.892;7.936;2022-08-20T05:39:18;21.90;99.90
13682;DHT22;6913;49.892;7.936;2022-08-20T05:41:46;22.10;99.90
13682;DHT22;6913;49.892;7.936;2022-08-20T05:44:16;21.70;99.90
13682;DHT22;6913;49.892;7.936;2022-08-20T05:46:45;21.70;99.90
13682;DHT22;6913;49.892;7.936;2022-08-20T05:49:14;21.70;99.90
13682;DHT22;6913;49.892;7.936;2022-08-20T05:51:42;21.80;99.90
13682;DHT22;6913;49.892;7.936;2022-08-20T05:54:13;21.80;99.90
13682;DHT22;6913;49.892;7.936;2022-08-20T05:56:40;21.80;99.90
13682;DHT22;6913;49.892;7.936;2022-08-20T05:59:08;21.80;99.90
13682;DHT22;6913;49.892;7.936;2022-08-20T06:01:37;21.90;99.90
13682;DHT22;6913;49.892;7.936;2022-08-20T06:04:05;22.00;99.90
13682;DHT22;6913;49.892;7.936;2022-08-20T06:06:50;21.80;99.90
13682;DHT22;6913;49.892;7.936;2022-08-20T06:09:21;21.80;99.90
13682;DHT22;6913;49.892;7.936;2022-08-20T06:11:49;22.00;99.90
13682;DHT22;6913;49.892;7.936;2022-08-20T06:14:16;22.10;99.90
13682;DHT22;6913;49.892;7.936;2022-08-20T06:16:43;22.00;99.90
13682;DHT22;6913;49.892;7.936;2022-08-20T06:19:10;22.10;99.90
13682;DHT22;6913;49.892;7.936;2022-08-20T06:21:38;22.30;99.90
13682;DHT22;6913;49.892;7.936;2022-08-20T06:24:05;22.40;99.90
13682;DHT22;6913;49.892;7.936;2022-08-20T06:26:34;22.40;99.90
13682;DHT22;6913;49.892;7.936;2022-08-20T06:29:03;22.30;99.90
13682;DHT22;6913;49.892;7.936;2022-08-20T06:31:31;22.50;99.90
13682;DHT22;6913;49.892;7.936;2022-08-20T06:33:59;22.60;99.90
13682;DHT22;6913;49.892;7.936;2022-08-20T06:36:26;22.70;99.90
13682;DHT22;6913;49.892;7.936;2022-08-20T06:38:53;22.70;99.90
13682;DHT22;6913;49.892;7.936;2022-08-20T06:41:20;22.80;99.90
13682;DHT22;6913;49.892;7.936;2022-08-20T06:43:48;22.90;99.90
13682;DHT22;6913;49.892;7.936;2022-08-20T06:46:18;22.90;99.90
13682;DHT22;6913;49.892;7.936;2022-08-20T06:48:48;22.80;99.90
13682;DHT22;6913;49.892;7.936;2022-08-20T06:51:16;22.80;99.90
13682;DHT22;6913;49.892;7.936;2022-08-20T06:53:45;22.90;99.90
13682;DHT22;6913;49.892;7.936;2022-08-20T06:56:12;23.10;99.90
13682;DHT22;6913;49.892;7.936;2022-08-20T06:58:39;23.40;99.90
13682;DHT22;6913;49.892;7.936;2022-08-20T07:01:09;23.60;99.90
13682;DHT22;6913;49.892;7.936;2022-08-20T07:03:37;24.40;99.90
13682;DHT22;6913;49.892;7.936;2022-08-20T07:06:05;24.50;99.90
13682;DHT22;6913;49.892;7.936;2022-08-20T07:08:33;24.40;99.90
13682;DHT22;6913;49.892;7.936;2022-08-20T07:11:01;24.20;99.90
13682;DHT22;6913;49.892;7.936;2022-08-20T07:13:28;24.10;99.90
13682;DHT22;6913;49.892;7.936;2022-08-20T07:15:55;24.50;99.90
13682;DHT22;6913;49.892;7.936;2022-08-20T07:18:24;24.70;99.90
13682;DHT22;6913;49.892;7.936;2022-08-20T07:20:50;24.60;99.90
13682;DHT22;6913;49.892;7.936;2022-08-20T07:23:20;24.80;99.90
13682;DHT22;6913;49.892;7.936;2022-08-20T07:25:48;24.80;99.90
13682;DHT22;6913;49.892;7.936;2022-08-20T07:28:18;24.60;99.90
13682;DHT22;6913;49.892;7.936;2022-08-20T07:30:46;24.70;99.90
13682;DHT22;6913;49.892;7.936;2022-08-20T07:33:32;24.60;99.90
13682;DHT22;6913;49.892;7.936;2022-08-20T07:36:01;24.70;99.90
13682;DHT22;6913;49.892;7.936;2022-08-20T07:38:30;24.70;99.90
13682;DHT22;6913;49.892;7.936;2022-08-20T07:40:59;24.80;99.90
13682;DHT22;6913;49.892;7.936;2022-08-20T07:43:26;24.80;99.90
13682;DHT22;6913;49.892;7.936;2022-08-20T07:45:55;24.90;99.90
13682;DHT22;6913;49.892;7.936;2022-08-20T07:48:25;25.10;99.90
13682;DHT22;6913;49.892;7.936;2022-08-20T07:50:54;25.10;99.90
13682;DHT22;6913;49.892;7.936;2022-08-20T07:53:21;25.10;99.90
13682;DHT22;6913;49.892;7.936;2022-08-20T07:55:48;25.30;99.90
13682;DHT22;6913;49.892;7.936;2022-08-20T07:58:18;26.40;99.90
13682;DHT22;6913;49.892;7.936;2022-08-20T08:00:45;27.60;99.90
13682;DHT22;6913;49.892;7.936;2022-08-20T08:03:12;28.30;99.90
13682;DHT22;6913;49.892;7.936;2022-08-20T08:05:41;28.40;99.90
13682;DHT22;6913;49.892;7.936;2022-08-20T08:08:17;28.50;99.90
13682;DHT22;6913;49.892;7.936;2022-08-20T08:10:47;28.40;99.90
13682;DHT22;6913;49.892;7.936;2022-08-20T08:13:14;28.00;99.90
13682;DHT22;6913;49.892;7.936;2022-08-20T08:15:45;27.60;99.90
13682;DHT22;6913;49.892;7.936;2022-08-20T08:18:15;27.10;99.90
13682;DHT22;6913;49.892;7.936;2022-08-20T08:20:47;27.50;99.90
13682;DHT22;6913;49.892;7.936;2022-08-20T08:23:17;28.10;99.90
13682;DHT22;6913;49.892;7.936;2022-08-20T08:25:45;27.70;99.90
13682;DHT22;6913;49.892;7.936;2022-08-20T08:28:12;28.20;99.90
13682;DHT22;6913;49.892;7.936;2022-08-20T08:30:40;29.50;99.90
13682;DHT22;6913;49.892;7.936;2022-08-20T08:33:17;29.90;99.90
13682;DHT22;6913;49.892;7.936;2022-08-20T08:35:54;29.90;99.90
13682;DHT22;6913;49.892;7.936;2022-08-20T08:38:23;29.80;99.90
13682;DHT22;6913;49.892;7.936;2022-08-20T08:40:51;29.80;99.90
13682;DHT22;6913;49.892;7.936;2022-08-20T08:43:22;29.30;99.90
13682;DHT22;6913;49.892;7.936;2022-08-20T08:45:55;29.00;99.90
13682;DHT22;6913;49.892;7.936;2022-08-20T08:48:31;29.00;99.90
13682;DHT22;6913;49.892;7.936;2022-08-20T08:51:01;29.20;99.90
13682;DHT22;6913;49.892;7.936;2022-08-20T08:53:38;29.20;99.90
13682;DHT22;6913;49.892;7.936;2022-08-20T08:56:08;29.00;99.90
13682;DHT22;6913;49.892;7.936;2022-08-20T08:58:35;29.00;99.90
13682;DHT22;6913;49.892;7.936;2022-08-20T09:01:08;29.50;99.90
13682;DHT22;6913;49.892;7.936;2022-08-20T09:03:38;29.70;99.90
13682;DHT22;6913;49.892;7.936;2022-08-20T09:06:11;29.40;99.90
13682;DHT22;6913;49.892;7.936;2022-08-20T09:08:44;29.40;99.90
13682;DHT22;6913;49.892;7.936;2022-08-20T09:11:12;29.40;99.90
13682;DHT22;6913;49.892;7.936;2022-08-20T09:13:39;29.50;99.90
13682;DHT22;6913;49.892;7.936;2022-08-20T09:16:07;29.50;99.90
13682;DHT22;6913;49.892;7.936;2022-08-20T09:18:34;29.20;99.90
13682;DHT22;6913;49.892;7.936;2022-08-20T09:21:01;28.90;99.90
13682;DHT22;6913;49.892;7.936;2022-08-20T09:23:28;28.80;99.90
13682;DHT22;6913;49.892;7.936;2022-08-20T09:25:56;28.70;99.90
13682;DHT22;6913;49.892;7.936;2022-08-20T09:28:23;28.00;99.90
13682;DHT22;6913;49.892;7.936;2022-08-20T09:30:51;28.50;99.90
13682;DHT22;6913;49.892;7.936;2022-08-20T09:33:17;29.50;99.90
13682;DHT22;6913;49.892;7.936;2022-08-20T09:35:44;29.70;99.90
13682;DHT22;6913;49.892;7.936;2022-08-20T09:38:11;30.40;99.90
13682;DHT22;6913;49.892;7.936;2022-08-20T09:40:39;30.70;99.90
13682;DHT22;6913;49.892;7.936;2022-08-20T09:43:08;30.70;99.90
13682;DHT22;6913;49.892;7.936;2022-08-20T09:45:35;30.50;99.90
13682;DHT22;6913;49.892;7.936;2022-08-20T09:48:03;30.30;99.90
13682;DHT22;6913;49.892;7.936;2022-08-20T09:50:32;29.90;99.90
13682;DHT22;6913;49.892;7.936;2022-08-20T09:53:01;29.80;99.90
13682;DHT22;6913;49.892;7.936;2022-08-20T09:55:33;29.70;99.90
13682;DHT22;6913;49.892;7.936;2022-08-20T09:58:02;29.90;99.90
13682;DHT22;6913;49.892;7.936;2022-08-20T10:00:32;30.30;99.90
13682;DHT22;6913;49.892;7.936;2022-08-20T10:02:59;30.90;99.90
13682;DHT22;6913;49.892;7.936;2022-08-20T10:05:27;30.90;99.70
13682;DHT22;6913;49.892;7.936;2022-08-20T10:07:54;30.80;99.90
13682;DHT22;6913;49.892;7.936;2022-08-20T10:10:21;30.90;99.40
13682;DHT22;6913;49.892;7.936;2022-08-20T10:12:48;30.80;99.30
13682;DHT22;6913;49.892;7.936;2022-08-20T10:15:15;31.40;98.50
13682;DHT22;6913;49.892;7.936;2022-08-20T10:17:44;31.80;97.90
13682;DHT22;6913;49.892;7.936;2022-08-20T10:20:12;32.20;97.20
13682;DHT22;6913;49.892;7.936;2022-08-20T10:22:39;32.50;96.40
13682;DHT22;6913;49.892;7.936;2022-08-20T10:25:07;32.60;95.80
13682;DHT22;6913;49.892;7.936;2022-08-20T10:27:35;31.60;96.30
13682;DHT22;6913;49.892;7.936;2022-08-20T10:30:04;31.30;96.70
13682;DHT22;6913;49.892;7.936;2022-08-20T10:32:31;30.80;96.80
13682;DHT22;6913;49.892;7.936;2022-08-20T10:35:00;30.20;98.30
13682;DHT22;6913;49.892;7.936;2022-08-20T10:37:26;31.20;97.10
13682;DHT22;6913;49.892;7.936;2022-08-20T10:39:54;31.60;95.90
13682;DHT22;6913;49.892;7.936;2022-08-20T10:42:21;31.80;95.90
13682;DHT22;6913;49.892;7.936;2022-08-20T10:44:48;31.90;95.50
13682;DHT22;6913;49.892;7.936;2022-08-20T10:47:18;32.20;95.40
13682;DHT22;6913;49.892;7.936;2022-08-20T10:49:46;32.80;94.40
13682;DHT22;6913;49.892;7.936;2022-08-20T10:52:14;32.80;94.10
13682;DHT22;6913;49.892;7.936;2022-08-20T10:54:41;33.10;92.80
13682;DHT22;6913;49.892;7.936;2022-08-20T10:57:11;33.50;91.60
13682;DHT22;6913;49.892;7.936;2022-08-20T10:59:40;32.90;92.40
13682;DHT22;6913;49.892;7.936;2022-08-20T11:02:07;33.10;90.80
13682;DHT22;6913;49.892;7.936;2022-08-20T11:04:35;33.40;90.20
13682;DHT22;6913;49.892;7.936;2022-08-20T11:07:15;33.10;87.40
13682;DHT22;6913;49.892;7.936;2022-08-20T11:09:43;33.70;87.80
13682;DHT22;6913;49.892;7.936;2022-08-20T11:12:10;34.00;87.50
13682;DHT22;6913;49.892;7.936;2022-08-20T11:14:37;33.80;86.00
13682;DHT22;6913;49.892;7.936;2022-08-20T11:17:05;34.00;86.00
13682;DHT22;6913;49.892;7.936;2022-08-20T11:19:32;34.30;83.30
13682;DHT22;6913;49.892;7.936;2022-08-20T11:21:59;34.50;82.10
13682;DHT22;6913;49.892;7.936;2022-08-20T11:24:27;34.80;81.00
13682;DHT22;6913;49.892;7.936;2022-08-20T11:26:54;34.80;78.70
13682;DHT22;6913;49.892;7.936;2022-08-20T11:29:21;34.80;76.10
13682;DHT22;6913;49.892;7.936;2022-08-20T11:31:49;35.10;74.80
13682;DHT22;6913;49.892;7.936;2022-08-20T11:34:16;35.10;74.00
13682;DHT22;6913;49.892;7.936;2022-08-20T11:36:44;34.70;70.90
13682;DHT22;6913;49.892;7.936;2022-08-20T11:39:12;34.10;71.60
13682;DHT22;6913;49.892;7.936;2022-08-20T11:41:40;33.30;70.00
13682;DHT22;6913;49.892;7.936;2022-08-20T11:44:07;33.00;71.00
13682;DHT22;6913;49.892;7.936;2022-08-20T11:46:34;33.40;71.20
13682;DHT22;6913;49.892;7.936;2022-08-20T11:49:01;33.20;72.30
13682;DHT22;6913;49.892;7.936;2022-08-20T11:51:28;32.70;73.30
13682;DHT22;6913;49.892;7.936;2022-08-20T11:53:55;32.20;73.50
13682;DHT22;6913;49.892;7.936;2022-08-20T11:56:22;32.80;73.60
13682;DHT22;6913;49.892;7.936;2022-08-20T11:58:50;33.70;70.70
13682;DHT22;6913;49.892;7.936;2022-08-20T12:01:17;33.60;70.60
13682;DHT22;6913;49.892;7.936;2022-08-20T12:03:44;32.10;71.50
13682;DHT22;6913;49.892;7.936;2022-08-20T12:06:11;32.10;72.20
13682;DHT22;6913;49.892;7.936;2022-08-20T12:08:38;32.60;69.90
13682;DHT22;6913;49.892;7.936;2022-08-20T12:11:05;32.70;70.60
13682;DHT22;6913;49.892;7.936;2022-08-20T12:13:34;32.70;69.40
13682;DHT22;6913;49.892;7.936;2022-08-20T12:16:04;32.60;68.70
13682;DHT22;6913;49.892;7.936;2022-08-20T12:18:31;32.80;66.20
13682;DHT22;6913;49.892;7.936;2022-08-20T12:20:58;32.80;65.50
13682;DHT22;6913;49.892;7.936;2022-08-20T12:23:25;33.00;63.90
13682;DHT22;6913;49.892;7.936;2022-08-20T12:25:51;33.10;62.70
13682;DHT22;6913;49.892;7.936;2022-08-20T12:28:18;32.60;61.10
13682;DHT22;6913;49.892;7.936;2022-08-20T12:30:45;33.20;62.10
13682;DHT22;6913;49.892;7.936;2022-08-20T12:33:13;33.30;58.10
13682;DHT22;6913;49.892;7.936;2022-08-20T12:35:40;33.10;57.40
13682;DHT22;6913;49.892;7.936;2022-08-20T12:38:07;33.00;57.70
13682;DHT22;6913;49.892;7.936;2022-08-20T12:40:34;33.10;55.90
13682;DHT22;6913;49.892;7.936;2022-08-20T12:43:02;32.80;55.00
13682;DHT22;6913;49.892;7.936;2022-08-20T12:45:30;33.40;54.30
13682;DHT22;6913;49.892;7.936;2022-08-20T12:48:02;33.80;51.20
13682;DHT22;6913;49.892;7.936;2022-08-20T12:50:31;33.60;49.50
13682;DHT22;6913;49.892;7.936;2022-08-20T12:52:59;33.30;49.40
13682;DHT22;6913;49.892;7.936;2022-08-20T12:55:26;33.20;49.30
13682;DHT22;6913;49.892;7.936;2022-08-20T12:57:54;33.40;48.60
13682;DHT22;6913;49.892;7.936;2022-08-20T13:00:25;33.60;47.80
13682;DHT22;6913;49.892;7.936;2022-08-20T13:02:54;33.30;46.70
13682;DHT22;6913;49.892;7.936;2022-08-20T13:05:22;33.60;46.90
13682;DHT22;6913;49.892;7.936;2022-08-20T13:07:51;33.40;46.50
13682;DHT22;6913;49.892;7.936;2022-08-20T13:10:20;33.20;47.60
13682;DHT22;6913;49.892;7.936;2022-08-20T13:12:47;33.30;46.50
13682;DHT22;6913;49.892;7.936;2022-08-20T13:15:15;33.40;43.90
13682;DHT22;6913;49.892;7.936;2022-08-20T13:17:42;33.60;44.40
13682;DHT22;6913;49.892;7.936;2022-08-20T13:20:11;33.90;43.80
13682;DHT22;6913;49.892;7.936;2022-08-20T13:22:39;33.50;43.40
13682;DHT22;6913;49.892;7.936;2022-08-20T13:25:09;33.50;43.40
13682;DHT22;6913;49.892;7.936;2022-08-20T13:27:36;33.40;43.30
13682;DHT22;6913;49.892;7.936;2022-08-20T13:30:06;33.50;42.30
13682;DHT22;6913;49.892;7.936;2022-08-20T13:32:33;32.80;42.10
13682;DHT22;6913;49.892;7.936;2022-08-20T13:35:00;33.10;42.80
13682;DHT22;6913;49.892;7.936;2022-08-20T13:37:28;32.70;42.20
13682;DHT22;6913;49.892;7.936;2022-08-20T13:39:56;32.90;42.70
13682;DHT22;6913;49.892;7.936;2022-08-20T13:42:26;33.20;42.70
13682;DHT22;6913;49.892;7.936;2022-08-20T13:44:53;32.70;43.10
13682;DHT22;6913;49.892;7.936;2022-08-20T13:47:22;32.20;42.10
13682;DHT22;6913;49.892;7.936;2022-08-20T13:49:54;32.30;43.00
13682;DHT22;6913;49.892;7.936;2022-08-20T13:52:21;32.60;41.60
13682;DHT22;6913;49.892;7.936;2022-08-20T13:54:48;32.80;41.30
13682;DHT22;6913;49.892;7.936;2022-08-20T13:57:17;33.20;40.20
13682;DHT22;6913;49.892;7.936;2022-08-20T13:59:48;33.50;40.00
13682;DHT22;6913;49.892;7.936;2022-08-20T14:02:17;33.40;40.00
13682;DHT22;6913;49.892;7.936;2022-08-20T14:04:46;33.20;39.40
13682;DHT22;6913;49.892;7.936;2022-08-20T14:07:15;33.30;40.40
13682;DHT22;6913;49.892;7.936;2022-08-20T14:09:44;33.50;41.30
13682;DHT22;6913;49.892;7.936;2022-08-20T14:12:12;33.10;39.80
13682;DHT22;6913;49.892;7.936;2022-08-20T14:14:39;33.40;42.00
13682;DHT22;6913;49.892;7.936;2022-08-20T14:17:17;33.20;42.00
13682;DHT22;6913;49.892;7.936;2022-08-20T14:19:45;33.00;42.20
13682;DHT22;6913;49.892;7.936;2022-08-20T14:22:13;33.00;42.20
13682;DHT22;6913;49.892;7.936;2022-08-20T14:24:42;33.10;41.80
13682;DHT22;6913;49.892;7.936;2022-08-20T14:27:09;33.10;41.80
13682;DHT22;6913;49.892;7.936;2022-08-20T14:29:37;33.00;41.80
13682;DHT22;6913;49.892;7.936;2022-08-20T14:32:05;32.80;42.00
13682;DHT22;6913;49.892;7.936;2022-08-20T14:34:34;32.70;42.40
13682;DHT22;6913;49.892;7.936;2022-08-20T14:37:12;32.60;43.30
13682;DHT22;6913;49.892;7.936;2022-08-20T14:39:40;32.50;43.50
13682;DHT22;6913;49.892;7.936;2022-08-20T14:42:07;32.40;45.20
13682;DHT22;6913;49.892;7.936;2022-08-20T14:44:34;32.20;48.70
13682;DHT22;6913;49.892;7.936;2022-08-20T14:47:16;32.30;49.00
13682;DHT22;6913;49.892;7.936;2022-08-20T14:49:46;32.20;49.00
13682;DHT22;6913;49.892;7.936;2022-08-20T14:52:15;32.20;49.30
13682;DHT22;6913;49.892;7.936;2022-08-20T14:54:42;32.10;49.60
13682;DHT22;6913;49.892;7.936;2022-08-20T14:57:11;32.00;49.80
13682;DHT22;6913;49.892;7.936;2022-08-20T14:59:38;31.90;50.10
13682;DHT22;6913;49.892;7.936;2022-08-20T15:02:07;31.60;51.00
13682;DHT22;6913;49.892;7.936;2022-08-20T15:04:34;31.70;50.90
13682;DHT22;6913;49.892;7.936;2022-08-20T15:07:04;31.70;51.20
13682;DHT22;6913;49.892;7.936;2022-08-20T15:09:33;31.50;50.80
13682;DHT22;6913;49.892;7.936;2022-08-20T15:12:00;31.20;51.30
13682;DHT22;6913;49.892;7.936;2022-08-20T15:14:27;31.20;51.20
13682;DHT22;6913;49.892;7.936;2022-08-20T15:16:55;31.10;51.00
13682;DHT22;6913;49.892;7.936;2022-08-20T15:19:22;31.00;51.50
13682;DHT22;6913;49.892;7.936;2022-08-20T15:21:49;31.10;52.20
13682;DHT22;6913;49.892;7.936;2022-08-20T15:24:17;31.10;52.50
13682;DHT22;6913;49.892;7.936;2022-08-20T15:26:44;31.20;52.70
13682;DHT22;6913;49.892;7.936;2022-08-20T15:29:11;31.10;52.30
13682;DHT22;6913;49.892;7.936;2022-08-20T15:31:38;31.00;53.00
13682;DHT22;6913;49.892;7.936;2022-08-20T15:34:05;31.10;52.90
13682;DHT22;6913;49.892;7.936;2022-08-20T15:36:32;31.00;53.30
13682;DHT22;6913;49.892;7.936;2022-08-20T15:38:59;30.80;53.30
13682;DHT22;6913;49.892;7.936;2022-08-20T15:41:27;30.80;53.40
13682;DHT22;6913;49.892;7.936;2022-08-20T15:43:55;30.80;53.30
13682;DHT22;6913;49.892;7.936;2022-08-20T15:46:22;30.60;54.10
13682;DHT22;6913;49.892;7.936;2022-08-20T15:48:50;30.50;54.00
13682;DHT22;6913;49.892;7.936;2022-08-20T15:51:21;30.50;55.00
13682;DHT22;6913;49.892;7.936;2022-08-20T15:53:58;30.40;55.80